Larsen: Past 24 Hour Conditions

 

Resolute Airport

12:00 AM CDT 25 April 2014
This table is a summary of hourly weather conditions for the past 24 hours.
Date / Time
(CDT)
Wind(knots) Conditions Visibility(km) Pressure(kPa) Air tempC) Relative humidity(%) Dew pointC) Wind Chill
25 April 2014
0:00 NE 18 Drifting Snow 24 103.0 -21 60 -26 -34
24 April 2014
23:00 NE 18 Drifting Snow 24 103.0 -19 58 -25 -32
22:00 NE 16 Sunny 24 103.1 -19 59 -25 -32
21:00 NE 15 Sunny 24 103.0 -19 60 -25 -31
20:00 N 6 Sunny 24 103.1 -19 61 -24 -26
19:00 N 4 Sunny 24 103.1 -19 61 -24 -25
18:00 SSW 6 Sunny 24 103.0 -19 65 -24 -26
17:00 NW 14 Sunny 24 103.0 -19 64 -24 -30
16:00 NW 6 Sunny 24 103.0 -18 61 -24 -26
15:00 NNW 14 Sunny 24 103.0 -19 64 -24 -30
14:00 WNW 5 Sunny 24 102.9 -19 63 -24 -25
13:00 NW 6 Sunny 24 102.9 -20 64 -25 -27
12:00 NW 8 Sunny 24 102.9 -20 66 -25 -30
11:00 NNW 11 Sunny 24 102.9 -19 61 -25 -29
10:00 W 7 Sunny 24 102.9 -22 66 -27 -31
9:00 NW 10 Sunny 24 102.9 -23 68 -27 -33
8:00 WNW 11 Sunny 24 102.8 -21 61 -26 -32
7:00 N 2 Sunny 24 102.8 -22 60 -28 -25
6:00 NW 13 Sunny 24 102.8 -21 59 -27 -33
5:00 NNW 14 Drifting Snow 16 102.7 -21 60 -27 -33
4:00 WNW 7 Sunny 24 102.7 -24 66 -29 -33
3:00 NE 21 Drifting Snow 16 102.6 -21 63 -26 -35
2:00 NE 22 gust 27 Drifting Snow 15 102.6 -21 62 -27 -36
1:00 NE 18 Drifting Snow 24 102.6 -21 62 -27 -35
0:00 NNW 14 Drifting Snow 24 102.5 -23 65 -27 -35
 
Map of Arctic - Eastern Arctic marine weather areas Baker Lake Airport Chesterfield Inlet Airport Coral Harbour Airport Gjoa Haven Airport Kugaaruk Airport Rankin Inlet Airport Shepherd Bay Airport Whale Cove Airport Arctic Bay Brevoort Island Qikiqtarjuaq Airport Cape Dorset Airport Cape Dyer Cape Hooper Clyde Airport Grise Fiord Airport Hall Beach Airport Igloolik Airport Iqaluit Airport Longstaff Bluff Pangnirtung Airport Pond Inlet Airport Repulse Bay Airport Resolute Airport Resolution Island Rowley Island Airport Taloyoak Airport Wager Bay Akulivik Airport Ivujivik Airport Puvirnituq Airport Kangiqsujuaq Airport Kangirsuk Airport Quaqtaq Airport Tasiujaq Airport Cape Kakkiviak Cape Kiglapait Nain Airport Saglek Cape Mercy Kimmirut Airport Aupaluk Airport Salluit Airport Kangiqsualujjuaq Airport Fort Ross
Legend: buoyBuoy land stationLand Station